createdAt,value
2023-04-25T00:01:50.348Z,7.43
2023-04-25T00:04:17.000Z,7.77
2023-04-25T00:06:43.741Z,7.50
2023-04-25T00:09:11.158Z,7.17
2023-04-25T00:11:38.046Z,7.20
2023-04-25T00:14:05.115Z,6.90
2023-04-25T00:16:34.783Z,7.07
2023-04-25T00:19:02.435Z,6.30
2023-04-25T00:21:29.290Z,7.07
2023-04-25T00:23:56.265Z,6.78
2023-04-25T00:26:22.761Z,6.67
2023-04-25T00:28:49.176Z,7.32
2023-04-25T00:31:16.295Z,6.40
2023-04-25T00:33:42.895Z,6.17
2023-04-25T00:36:09.940Z,6.10
2023-04-25T00:38:36.780Z,6.38
2023-04-25T00:41:03.223Z,6.82
2023-04-25T00:43:31.172Z,7.50
2023-04-25T00:45:58.610Z,6.55
2023-04-25T00:48:25.279Z,5.90
2023-04-25T00:50:56.350Z,6.07
2023-04-25T00:53:24.111Z,6.82
2023-04-25T00:55:51.919Z,7.00
2023-04-25T00:58:18.976Z,6.82
2023-04-25T01:00:48.982Z,5.78
2023-04-25T01:03:20.738Z,6.38
2023-04-25T01:05:47.999Z,6.33
2023-04-25T01:08:14.949Z,5.80
2023-04-25T01:10:41.496Z,6.93
2023-04-25T01:13:08.662Z,6.38
2023-04-25T01:15:36.758Z,6.63
2023-04-25T01:18:03.672Z,5.90
2023-04-25T01:20:30.246Z,5.85
2023-04-25T01:22:57.218Z,6.40
2023-04-25T01:25:24.167Z,6.18
2023-04-25T01:27:50.800Z,6.18
2023-04-25T01:30:17.387Z,5.60
2023-04-25T01:32:44.031Z,6.13
2023-04-25T01:35:12.290Z,6.60
2023-04-25T01:37:39.475Z,6.25
2023-04-25T01:40:06.467Z,6.07
2023-04-25T01:42:33.392Z,6.63
2023-04-25T01:45:00.219Z,7.10
2023-04-25T01:47:27.629Z,7.13
2023-04-25T01:49:54.824Z,6.90
2023-04-25T01:52:21.621Z,6.03
2023-04-25T01:54:48.773Z,6.47
2023-04-25T01:57:15.852Z,6.50
2023-04-25T01:59:44.171Z,6.67
2023-04-25T02:02:21.306Z,6.68
2023-04-25T02:04:47.898Z,6.03
2023-04-25T02:07:15.175Z,5.72
2023-04-25T02:09:49.604Z,6.00
2023-04-25T02:12:17.739Z,5.90
2023-04-25T02:15:13.276Z,5.78
2023-04-25T02:17:46.136Z,5.60
2023-04-25T02:20:12.709Z,5.25
2023-04-25T02:22:39.940Z,5.60
2023-04-25T02:25:07.011Z,5.00
2023-04-25T02:27:33.465Z,4.83
2023-04-25T02:29:59.917Z,5.00
2023-04-25T02:32:26.726Z,4.30
2023-04-25T02:34:53.372Z,4.68
2023-04-25T02:37:20.002Z,4.40
2023-04-25T02:39:46.492Z,4.53
2023-04-25T02:42:12.941Z,5.40
2023-04-25T02:44:39.347Z,4.27
2023-04-25T02:47:05.814Z,4.67
2023-04-25T02:49:32.281Z,4.57
2023-04-25T02:51:58.740Z,5.30
2023-04-25T02:54:25.369Z,5.10
2023-04-25T02:56:51.866Z,5.30
2023-04-25T02:59:24.024Z,4.50
2023-04-25T03:01:50.610Z,4.83
2023-04-25T03:04:17.321Z,5.00
2023-04-25T03:06:43.890Z,4.97
2023-04-25T03:09:10.695Z,5.10
2023-04-25T03:11:38.255Z,5.70
2023-04-25T03:14:05.288Z,5.07
2023-04-25T03:16:32.030Z,5.40
2023-04-25T03:18:58.548Z,6.00
2023-04-25T03:21:27.440Z,6.13
2023-04-25T03:23:53.868Z,6.13
2023-04-25T03:26:20.560Z,6.13
2023-04-25T03:28:48.463Z,5.67
2023-04-25T03:31:14.937Z,5.97
2023-04-25T03:33:41.506Z,6.00
2023-04-25T03:36:09.282Z,5.85
2023-04-25T03:38:35.868Z,6.17
2023-04-25T03:41:02.945Z,6.85
2023-04-25T03:43:47.916Z,6.90
2023-04-25T03:46:16.203Z,7.10
2023-04-25T03:48:42.997Z,6.67
2023-04-25T03:51:12.884Z,6.77
2023-04-25T03:53:42.597Z,6.93
2023-04-25T03:56:27.585Z,6.57
2023-04-25T03:59:01.417Z,6.93
2023-04-25T04:01:29.727Z,6.73
2023-04-25T04:03:56.867Z,7.30
2023-04-25T04:06:24.560Z,6.47
2023-04-25T04:08:57.719Z,7.57
2023-04-25T04:11:24.574Z,7.82
2023-04-25T04:13:51.272Z,6.20
2023-04-25T04:16:17.930Z,6.67
2023-04-25T04:18:44.639Z,6.82
2023-04-25T04:21:11.674Z,8.35
2023-04-25T04:23:41.270Z,6.68
2023-04-25T04:26:10.000Z,7.35
2023-04-25T04:28:55.372Z,7.23
2023-04-25T04:31:54.116Z,8.43
2023-04-25T04:34:20.732Z,7.30
2023-04-25T04:36:47.823Z,6.63
2023-04-25T04:39:14.662Z,6.63
2023-04-25T04:41:55.456Z,7.00
2023-04-25T04:44:57.079Z,7.47
2023-04-25T04:47:26.910Z,7.10
2023-04-25T04:50:01.473Z,7.60
2023-04-25T04:52:50.843Z,6.67
2023-04-25T04:55:35.669Z,7.27
2023-04-25T04:58:10.785Z,7.13
2023-04-25T05:00:46.444Z,6.63
2023-04-25T05:03:31.451Z,6.47
2023-04-25T05:06:13.474Z,7.07
2023-04-25T05:08:51.487Z,6.75
2023-04-25T05:11:37.991Z,6.77
2023-04-25T05:14:28.704Z,7.18
2023-04-25T05:17:09.766Z,7.03
2023-04-25T05:20:02.677Z,7.20
2023-04-25T05:22:47.825Z,7.83
2023-04-25T05:25:31.302Z,7.10
2023-04-25T05:28:06.005Z,7.40
2023-04-25T05:30:44.743Z,7.33
2023-04-25T05:33:16.437Z,7.43
2023-04-25T05:35:44.069Z,7.40
2023-04-25T05:38:11.675Z,7.30
2023-04-25T05:40:56.636Z,6.77
2023-04-25T05:44:01.322Z,7.60
2023-04-25T05:46:37.247Z,7.80
2023-04-25T05:49:19.766Z,7.30
2023-04-25T05:51:55.523Z,7.75
2023-04-25T05:54:27.920Z,6.53
2023-04-25T05:56:57.428Z,6.55
2023-04-25T05:59:23.859Z,6.22
2023-04-25T06:01:50.483Z,7.13
2023-04-25T06:04:17.050Z,6.25
2023-04-25T06:06:43.714Z,6.90
2023-04-25T06:09:10.230Z,5.70
2023-04-25T06:11:36.688Z,5.68
2023-04-25T06:14:03.729Z,6.97
2023-04-25T06:16:32.749Z,5.60
2023-04-25T06:18:59.272Z,5.40
2023-04-25T06:21:26.492Z,6.13
2023-04-25T06:23:53.360Z,5.07
2023-04-25T06:26:22.413Z,5.47
2023-04-25T06:28:49.200Z,6.50
2023-04-25T06:31:16.156Z,5.78
2023-04-25T06:33:43.769Z,6.10
2023-04-25T06:36:10.663Z,5.60
2023-04-25T06:38:38.254Z,6.05
2023-04-25T06:41:05.892Z,5.00
2023-04-25T06:43:35.538Z,5.45
2023-04-25T06:46:31.144Z,5.38
2023-04-25T06:48:59.176Z,5.35
2023-04-25T06:51:29.357Z,6.00
2023-04-25T06:53:56.124Z,5.65
2023-04-25T06:56:31.937Z,5.45
2023-04-25T06:59:24.602Z,6.00
2023-04-25T07:01:51.319Z,5.43
2023-04-25T07:04:21.651Z,5.45
2023-04-25T07:06:51.735Z,6.60
2023-04-25T07:09:23.069Z,5.50
2023-04-25T07:11:50.623Z,5.30
2023-04-25T07:14:17.141Z,5.47
2023-04-25T07:16:43.592Z,4.88
2023-04-25T07:19:10.942Z,4.63
2023-04-25T07:21:37.988Z,4.60
2023-04-25T07:24:05.847Z,4.30
2023-04-25T07:26:35.867Z,4.03
2023-04-25T07:29:22.598Z,5.18
2023-04-25T07:31:49.201Z,4.32
2023-04-25T07:34:16.542Z,4.10
2023-04-25T07:36:44.353Z,5.32
2023-04-25T07:39:10.940Z,4.22
2023-04-25T07:41:38.236Z,3.70
2023-04-25T07:44:05.628Z,4.10
2023-04-25T07:46:33.987Z,4.57
2023-04-25T07:49:00.723Z,4.28
2023-04-25T07:51:27.539Z,4.18
2023-04-25T07:53:56.080Z,3.88
2023-04-25T07:56:22.727Z,4.30
2023-04-25T07:58:50.971Z,4.15
2023-04-25T08:01:21.732Z,4.70
2023-04-25T08:04:00.156Z,5.97
2023-04-25T08:06:44.366Z,5.22
2023-04-25T08:09:18.957Z,4.85
2023-04-25T08:11:45.426Z,5.38
2023-04-25T08:14:14.964Z,4.35
2023-04-25T08:16:43.335Z,4.38
2023-04-25T08:19:10.551Z,4.13
2023-04-25T08:21:37.040Z,3.58
2023-04-25T08:24:07.162Z,4.43
2023-04-25T08:26:38.361Z,4.10
2023-04-25T08:29:06.494Z,4.07
2023-04-25T08:31:33.436Z,3.35
2023-04-25T08:34:02.753Z,3.00
2023-04-25T08:36:39.803Z,3.30
2023-04-25T08:39:19.107Z,3.40
2023-04-25T08:42:04.712Z,3.67
2023-04-25T08:44:31.638Z,3.83
2023-04-25T08:46:58.355Z,3.90
2023-04-25T08:49:29.162Z,3.80
2023-04-25T08:51:58.202Z,3.67
2023-04-25T08:54:35.205Z,3.63
2023-04-25T08:57:05.273Z,3.05
2023-04-25T08:59:33.120Z,3.58
2023-04-25T09:02:01.175Z,3.60
2023-04-25T09:04:27.851Z,2.90
2023-04-25T09:06:55.035Z,3.40
2023-04-25T09:09:22.407Z,3.17
2023-04-25T09:11:49.382Z,2.90
2023-04-25T09:14:21.496Z,3.03
2023-04-25T09:17:08.620Z,2.63
2023-04-25T09:19:45.165Z,2.28
2023-04-25T09:22:31.331Z,3.10
2023-04-25T09:24:58.428Z,2.90
2023-04-25T09:27:28.906Z,2.60
2023-04-25T09:30:03.703Z,3.63
2023-04-25T09:33:05.473Z,3.03
2023-04-25T09:35:35.932Z,2.47
2023-04-25T09:38:02.544Z,2.28
2023-04-25T09:40:54.939Z,2.50
2023-04-25T09:43:34.188Z,3.33
2023-04-25T09:46:01.883Z,3.60
2023-04-25T09:48:30.686Z,2.60
2023-04-25T09:51:06.801Z,2.50
2023-04-25T09:53:34.839Z,3.38
2023-04-25T09:56:26.472Z,2.47
2023-04-25T09:58:54.859Z,2.30
2023-04-25T10:01:22.791Z,2.67
2023-04-25T10:04:10.017Z,2.13
2023-04-25T10:07:00.366Z,1.92
2023-04-25T10:09:33.048Z,1.98
2023-04-25T10:12:00.162Z,2.40
2023-04-25T10:14:27.151Z,2.05
2023-04-25T10:16:57.066Z,1.95
2023-04-25T10:19:24.416Z,2.00
2023-04-25T10:21:56.835Z,2.22
2023-04-25T10:24:23.861Z,2.10
2023-04-25T10:26:51.161Z,2.65
2023-04-25T10:29:26.620Z,1.88
2023-04-25T10:31:53.492Z,1.90
2023-04-25T10:34:20.478Z,2.08
2023-04-25T10:36:53.614Z,2.58
2023-04-25T10:39:24.583Z,2.20
2023-04-25T10:41:58.466Z,2.08
2023-04-25T10:44:31.423Z,2.30
2023-04-25T10:46:58.962Z,2.55
2023-04-25T10:49:35.899Z,2.05
2023-04-25T10:52:21.178Z,1.70
2023-04-25T10:54:54.791Z,2.17
2023-04-25T10:57:34.348Z,1.88
2023-04-25T11:00:07.730Z,1.90
2023-04-25T11:02:38.122Z,1.92
2023-04-25T11:05:04.726Z,2.05
2023-04-25T11:07:34.270Z,1.67
2023-04-25T11:10:02.426Z,1.58
2023-04-25T11:12:30.771Z,1.60
2023-04-25T11:15:07.548Z,1.73
2023-04-25T11:17:34.609Z,1.75
2023-04-25T11:20:01.394Z,1.45
2023-04-25T11:22:28.459Z,1.52
2023-04-25T11:24:55.067Z,1.70
2023-04-25T11:27:22.126Z,2.03
2023-04-25T11:29:49.101Z,1.52
2023-04-25T11:32:19.395Z,1.70
2023-04-25T11:34:47.512Z,2.00
2023-04-25T11:37:14.926Z,1.90
2023-04-25T11:39:45.954Z,2.20
2023-04-25T11:42:13.790Z,1.80
2023-04-25T11:44:41.637Z,1.60
2023-04-25T11:47:08.190Z,1.73
2023-04-25T11:49:36.091Z,1.92
2023-04-25T11:52:02.590Z,2.53
2023-04-25T11:54:29.085Z,2.03
2023-04-25T11:56:55.576Z,2.42
2023-04-25T11:59:24.395Z,1.92
2023-04-25T12:01:51.627Z,2.08
2023-04-25T12:04:20.407Z,2.38
2023-04-25T12:06:48.905Z,2.08
2023-04-25T12:09:18.847Z,2.30
2023-04-25T12:11:49.241Z,2.05
2023-04-25T12:14:23.036Z,2.08
2023-04-25T12:16:49.544Z,2.42
2023-04-25T12:19:16.798Z,2.10
2023-04-25T12:21:56.517Z,2.33
2023-04-25T12:24:26.602Z,1.95
2023-04-25T12:26:54.171Z,2.63
2023-04-25T12:29:21.675Z,2.10
2023-04-25T12:31:48.557Z,2.38
2023-04-25T12:34:15.577Z,2.30
2023-04-25T12:36:42.045Z,2.60
2023-04-25T12:39:08.901Z,4.40
2023-04-25T12:41:35.436Z,4.05
2023-04-25T12:44:01.853Z,5.03
2023-04-25T12:46:28.389Z,4.40
2023-04-25T12:48:58.763Z,4.43
2023-04-25T12:51:29.564Z,4.00
2023-04-25T12:53:56.220Z,4.22
2023-04-25T12:56:24.591Z,3.75
2023-04-25T12:58:52.345Z,3.42
2023-04-25T13:01:19.056Z,4.07
2023-04-25T13:03:45.837Z,3.78
2023-04-25T13:06:13.823Z,3.67
2023-04-25T13:08:40.383Z,3.40
2023-04-25T13:11:07.079Z,3.20
2023-04-25T13:13:35.184Z,2.70
2023-04-25T13:16:05.316Z,2.95
2023-04-25T13:18:32.023Z,2.90
2023-04-25T13:20:59.111Z,3.17
2023-04-25T13:23:27.041Z,2.78
2023-04-25T13:25:53.736Z,2.88
2023-04-25T13:28:20.468Z,2.50
2023-04-25T13:30:48.877Z,2.55
2023-04-25T13:33:15.877Z,1.70
2023-04-25T13:35:42.864Z,1.80
2023-04-25T13:38:09.887Z,1.90
2023-04-25T13:40:36.490Z,1.70
2023-04-25T13:43:03.137Z,1.70
2023-04-25T13:45:31.511Z,1.95
2023-04-25T13:47:59.399Z,2.00
2023-04-25T13:50:26.165Z,2.17
2023-04-25T13:52:52.620Z,2.08
2023-04-25T13:55:19.297Z,1.98
2023-04-25T13:57:46.611Z,2.03
2023-04-25T14:00:13.951Z,1.90
2023-04-25T14:02:40.603Z,1.40
2023-04-25T14:05:08.011Z,1.33
2023-04-25T14:07:36.037Z,1.30
2023-04-25T14:10:02.771Z,1.17
2023-04-25T14:12:29.247Z,1.30
2023-04-25T14:14:55.816Z,1.75
2023-04-25T14:17:22.359Z,1.67
2023-04-25T14:19:49.153Z,1.75
2023-04-25T14:22:18.759Z,1.65
2023-04-25T14:24:45.188Z,1.85
2023-04-25T14:27:11.730Z,1.55
2023-04-25T14:29:38.200Z,2.28
2023-04-25T14:32:06.226Z,1.70
2023-04-25T14:34:32.901Z,2.17
2023-04-25T14:36:59.379Z,1.95
2023-04-25T14:39:25.885Z,2.15
2023-04-25T14:41:52.313Z,1.90
2023-04-25T14:44:18.765Z,1.75
2023-04-25T14:46:45.845Z,2.05
2023-04-25T14:49:12.411Z,1.92
2023-04-25T14:51:38.890Z,1.80
2023-04-25T14:54:05.360Z,2.15
2023-04-25T14:56:32.254Z,1.85
2023-04-25T14:58:58.692Z,1.77
2023-04-25T15:01:25.226Z,2.42
2023-04-25T15:03:52.449Z,2.10
2023-04-25T15:06:19.618Z,2.30
2023-04-25T15:08:46.076Z,2.13
2023-04-25T15:11:12.595Z,2.22
2023-04-25T15:13:39.141Z,2.10
2023-04-25T15:16:05.904Z,1.90
2023-04-25T15:18:32.454Z,1.90
2023-04-25T15:20:58.932Z,1.92
2023-04-25T15:23:27.159Z,2.10
2023-04-25T15:25:54.977Z,2.00
2023-04-25T15:28:22.376Z,1.90
2023-04-25T15:30:49.030Z,1.92
2023-04-25T15:33:16.113Z,1.38
2023-04-25T15:35:42.693Z,1.42
2023-04-25T15:38:09.619Z,1.30
2023-04-25T15:40:36.403Z,1.20
2023-04-25T15:43:03.340Z,1.48
2023-04-25T15:45:32.325Z,1.60
2023-04-25T15:47:58.992Z,1.40
2023-04-25T15:50:25.680Z,1.50
2023-04-25T15:52:52.369Z,1.50
2023-04-25T15:55:21.085Z,1.95
2023-04-25T15:57:49.214Z,1.50
2023-04-25T16:00:17.430Z,2.10
2023-04-25T16:02:44.852Z,1.85
2023-04-25T16:05:12.774Z,1.75
2023-04-25T16:07:40.480Z,1.70
2023-04-25T16:10:07.547Z,1.58
2023-04-25T16:12:34.101Z,1.55
2023-04-25T16:15:00.571Z,1.42
2023-04-25T16:17:29.608Z,1.60
2023-04-25T16:19:56.523Z,1.33
2023-04-25T16:22:22.996Z,1.30
2023-04-25T16:24:49.515Z,1.33
2023-04-25T16:27:16.205Z,1.30
2023-04-25T16:29:43.019Z,1.60
2023-04-25T16:32:09.524Z,1.70
2023-04-25T16:34:36.036Z,1.50
2023-04-25T16:37:02.539Z,1.55
2023-04-25T16:39:29.012Z,1.77
2023-04-25T16:41:55.558Z,1.85
2023-04-25T16:44:22.003Z,1.70
2023-04-25T16:46:48.847Z,1.58
2023-04-25T16:49:15.527Z,1.40
2023-04-25T16:51:42.035Z,1.48
2023-04-25T16:54:08.518Z,1.58
2023-04-25T16:56:35.002Z,1.20
2023-04-25T16:59:01.456Z,1.48
2023-04-25T17:01:28.079Z,1.55
2023-04-25T17:03:54.777Z,1.30
2023-04-25T17:06:21.469Z,1.60
2023-04-25T17:08:47.904Z,1.60
2023-04-25T17:11:14.439Z,1.58
2023-04-25T17:13:43.362Z,1.23
2023-04-25T17:16:11.833Z,1.40
2023-04-25T17:18:38.655Z,1.20
2023-04-25T17:21:06.061Z,1.40
2023-04-25T17:23:32.748Z,1.15
2023-04-25T17:25:59.411Z,1.63
2023-04-25T17:28:25.928Z,1.30
2023-04-25T17:30:52.478Z,1.25
2023-04-25T17:33:19.135Z,1.20
2023-04-25T17:35:46.178Z,1.80
2023-04-25T17:38:14.775Z,2.05
2023-04-25T17:40:41.274Z,1.80
2023-04-25T17:43:07.764Z,1.33
2023-04-25T17:45:34.841Z,1.40
2023-04-25T17:48:01.957Z,2.10
2023-04-25T17:50:28.675Z,1.80
2023-04-25T17:52:55.569Z,1.77
2023-04-25T17:55:22.071Z,1.58
2023-04-25T17:57:48.615Z,1.63
2023-04-25T18:00:15.330Z,2.28
2023-04-25T18:02:42.676Z,2.22
2023-04-25T18:05:09.885Z,1.83
2023-04-25T18:07:36.901Z,1.70
2023-04-25T18:10:05.873Z,1.90
2023-04-25T18:12:33.783Z,2.10
2023-04-25T18:15:01.022Z,1.88
2023-04-25T18:17:27.786Z,1.50
2023-04-25T18:19:55.342Z,2.08
2023-04-25T18:22:22.283Z,1.60
2023-04-25T18:24:51.579Z,1.63
2023-04-25T18:27:18.100Z,1.65
2023-04-25T18:29:45.541Z,1.42
2023-04-25T18:32:12.547Z,1.40
2023-04-25T18:34:41.523Z,1.60
2023-04-25T18:37:07.978Z,1.50
2023-04-25T18:39:34.443Z,1.75
2023-04-25T18:42:05.949Z,1.40
2023-04-25T18:44:36.559Z,1.65
2023-04-25T18:47:03.133Z,1.52
2023-04-25T18:49:30.854Z,1.30
2023-04-25T18:51:57.625Z,2.00
2023-04-25T18:54:24.332Z,1.83
2023-04-25T18:56:51.281Z,1.88
2023-04-25T18:59:18.249Z,1.92
2023-04-25T19:01:44.739Z,2.50
2023-04-25T19:04:11.519Z,2.00
2023-04-25T19:06:38.255Z,2.20
2023-04-25T19:09:04.745Z,1.70
2023-04-25T19:11:31.217Z,1.77
2023-04-25T19:13:57.776Z,2.15
2023-04-25T19:16:26.283Z,2.00
2023-04-25T19:18:54.726Z,2.20
2023-04-25T19:21:21.247Z,2.10
2023-04-25T19:23:47.790Z,1.83
2023-04-25T19:26:14.243Z,2.08
2023-04-25T19:28:42.900Z,2.30
2023-04-25T19:31:09.385Z,2.40
2023-04-25T19:33:35.845Z,2.45
2023-04-25T19:36:02.259Z,2.60
2023-04-25T19:38:28.780Z,2.83
2023-04-25T19:40:55.264Z,2.58
2023-04-25T19:43:21.774Z,2.47
2023-04-25T19:45:48.375Z,2.63
2023-04-25T19:48:15.281Z,2.42
2023-04-25T19:50:41.849Z,3.00
2023-04-25T19:53:09.253Z,2.40
2023-04-25T19:55:35.745Z,2.17
2023-04-25T19:58:03.367Z,2.25
2023-04-25T20:00:29.845Z,2.47
2023-04-25T20:02:56.545Z,2.83
2023-04-25T20:05:23.533Z,2.40
2023-04-25T20:07:50.464Z,2.72
2023-04-25T20:10:17.386Z,3.20
2023-04-25T20:12:44.304Z,3.00
2023-04-25T20:15:11.703Z,2.80
2023-04-25T20:17:39.029Z,2.65
2023-04-25T20:20:06.454Z,3.38
2023-04-25T20:22:36.919Z,2.55
2023-04-25T20:25:04.475Z,2.55
2023-04-25T20:27:31.623Z,2.55
2023-04-25T20:29:58.751Z,2.73
2023-04-25T20:32:25.198Z,3.20
2023-04-25T20:34:54.465Z,2.80
2023-04-25T20:37:20.896Z,2.70
2023-04-25T20:39:47.407Z,3.38
2023-04-25T20:42:13.901Z,2.83
2023-04-25T20:44:40.714Z,3.00
2023-04-25T20:47:09.441Z,2.80
2023-04-25T20:49:36.924Z,3.40
2023-04-25T20:52:03.400Z,3.20
2023-04-25T20:54:31.981Z,3.00
2023-04-25T20:56:58.496Z,3.40
2023-04-25T20:59:25.417Z,4.07
2023-04-25T21:01:52.870Z,3.60
2023-04-25T21:04:19.444Z,3.60
2023-04-25T21:06:46.530Z,3.67
2023-04-25T21:09:13.676Z,3.40
2023-04-25T21:11:40.445Z,3.67
2023-04-25T21:14:07.411Z,3.80
2023-04-25T21:16:38.720Z,4.20
2023-04-25T21:19:05.196Z,4.40
2023-04-25T21:21:32.379Z,4.03
2023-04-25T21:23:58.978Z,4.17
2023-04-25T21:26:26.266Z,4.80
2023-04-25T21:28:54.130Z,4.20
2023-04-25T21:31:20.763Z,4.17
2023-04-25T21:33:47.388Z,4.50
2023-04-25T21:36:13.855Z,4.63
2023-04-25T21:38:40.377Z,4.17
2023-04-25T21:41:07.147Z,3.97
2023-04-25T21:43:33.592Z,4.33
2023-04-25T21:46:21.766Z,5.03
2023-04-25T21:48:46.543Z,4.70
2023-04-25T21:51:12.990Z,4.00
2023-04-25T21:53:39.452Z,5.20
2023-04-25T21:56:06.078Z,4.60
2023-04-25T21:58:32.498Z,5.20
2023-04-25T22:00:59.589Z,4.33
2023-04-25T22:03:26.181Z,5.00
2023-04-25T22:05:52.784Z,5.20
2023-04-25T22:08:19.243Z,5.00
2023-04-25T22:10:46.260Z,5.23
2023-04-25T22:13:13.008Z,5.30
2023-04-25T22:15:39.415Z,5.80
2023-04-25T22:18:06.068Z,4.97
2023-04-25T22:20:33.186Z,5.80
2023-04-25T22:22:59.734Z,5.00
2023-04-25T22:25:26.407Z,4.63
2023-04-25T22:27:52.898Z,5.30
2023-04-25T22:30:19.533Z,6.17
2023-04-25T22:32:46.114Z,5.13
2023-04-25T22:35:12.578Z,5.13
2023-04-25T22:37:39.188Z,5.37
2023-04-25T22:40:09.304Z,5.03
2023-04-25T22:42:39.835Z,5.00
2023-04-25T22:45:08.052Z,5.73
2023-04-25T22:47:35.333Z,5.70
2023-04-25T22:50:05.647Z,5.43
2023-04-25T22:52:33.686Z,6.13
2023-04-25T22:55:01.571Z,5.00
2023-04-25T22:57:28.066Z,6.00
2023-04-25T22:59:55.253Z,5.40
2023-04-25T23:02:22.044Z,5.70
2023-04-25T23:04:48.740Z,5.17
2023-04-25T23:07:15.896Z,5.03
2023-04-25T23:09:42.565Z,4.47
2023-04-25T23:12:09.063Z,5.80
2023-04-25T23:14:35.553Z,5.30
2023-04-25T23:17:02.046Z,5.43
2023-04-25T23:19:28.626Z,5.40
2023-04-25T23:21:55.163Z,4.83
2023-04-25T23:24:21.602Z,4.83
2023-04-25T23:26:48.101Z,4.93
2023-04-25T23:29:14.518Z,5.40
2023-04-25T23:31:41.192Z,5.37
2023-04-25T23:34:07.756Z,5.90
2023-04-25T23:36:34.352Z,5.50
2023-04-25T23:39:02.112Z,5.27
2023-04-25T23:41:28.594Z,5.63
2023-04-25T23:43:55.015Z,5.50
2023-04-25T23:46:22.057Z,5.90
2023-04-25T23:48:48.579Z,5.87
2023-04-25T23:51:15.003Z,5.47
2023-04-25T23:53:41.444Z,6.40
2023-04-25T23:56:07.902Z,6.13
2023-04-25T23:58:34.455Z,7.20
